Terminal Aerodrome Forecast
Issued by NWS

Home | Current Version | Previous Version | Text Only | Print | Product List | Glossary On
Versions: 1 2 3 4 5 6 7 8 9 10 11 12 13 14 15
000
FTUS45 KABQ 271722
TAFAEG
TAF
KAEG 271722Z 2718/2818 23011G18KT P6SM FEW250
     FM272000 26016G26KT P6SM FEW250
     FM280200 32010KT P6SM FEW250
     FM280900 01009KT P6SM FEW250
     FM281300 12010KT P6SM FEW250=

USA.gov is the U.S. government's official web portal to all federal, state and local government web resources and services.